createdAt,value
2016-08-04T00:00:53.838Z,22.94
2016-08-04T00:01:53.484Z,22.97
2016-08-04T00:02:53.148Z,23.04
2016-08-04T00:03:53.151Z,23
2016-08-04T00:04:53.148Z,22.85
2016-08-04T00:05:53.161Z,23.07
2016-08-04T00:06:53.869Z,23.01
2016-08-04T00:07:53.171Z,23.07
2016-08-04T00:08:53.879Z,23.12
2016-08-04T00:09:52.469Z,23.17
2016-08-04T00:10:52.487Z,23.1
2016-08-04T00:11:53.194Z,23.32
2016-08-04T00:12:54.300Z,23.17
2016-08-04T00:13:52.493Z,23.33
2016-08-04T00:14:53.912Z,23.22
2016-08-04T00:15:53.916Z,23.17
2016-08-04T00:16:53.267Z,23.27
2016-08-04T00:17:52.519Z,23.22
2016-08-04T00:18:53.227Z,23.16
2016-08-04T00:20:53.244Z,23.2
2016-08-04T00:21:54.924Z,23.16
2016-08-04T00:22:52.544Z,23.15
2016-08-04T00:23:54.770Z,23.17
2016-08-04T00:24:54.017Z,23.22
2016-08-04T00:25:52.557Z,23.02
2016-08-04T00:26:52.564Z,22.88
2016-08-04T00:27:53.984Z,22.86
2016-08-04T00:28:53.282Z,22.94
2016-08-04T00:29:53.286Z,22.97
2016-08-04T00:30:54.002Z,23
2016-08-04T00:31:54.001Z,23.05
2016-08-04T00:32:53.499Z,23.19
2016-08-04T00:33:54.015Z,23.17
2016-08-04T00:34:52.611Z,23.16
2016-08-04T00:35:53.318Z,23.16
2016-08-04T00:36:54.028Z,23.22
2016-08-04T00:37:54.035Z,23.04
2016-08-04T00:38:53.341Z,23
2016-08-04T00:39:53.338Z,23.02
2016-08-04T00:40:53.347Z,22.98
2016-08-04T00:41:53.347Z,23.16
2016-08-04T00:42:53.349Z,23.1
2016-08-04T00:43:54.767Z,23.02
2016-08-04T00:44:53.418Z,23.13
2016-08-04T00:45:53.421Z,23.16
2016-08-04T00:46:52.719Z,23.02
2016-08-04T00:47:53.376Z,23.02
2016-08-04T00:48:53.385Z,23.04
2016-08-04T00:49:53.388Z,23.09
2016-08-04T00:50:54.110Z,23
2016-08-04T00:51:53.410Z,23.04
2016-08-04T00:52:53.403Z,22.97
2016-08-04T00:53:53.416Z,23.02
2016-08-04T00:54:54.467Z,22.86
2016-08-04T00:55:53.421Z,23.01
2016-08-04T00:56:54.079Z,23.04
2016-08-04T00:57:52.722Z,23.13
2016-08-04T00:58:52.741Z,23.02
2016-08-04T00:59:53.443Z,23.1
2016-08-04T01:00:54.153Z,22.97
2016-08-04T01:01:54.159Z,22.97
2016-08-04T01:02:52.748Z,23.04
2016-08-04T01:03:53.460Z,23.02
2016-08-04T01:04:54.177Z,23
2016-08-04T01:05:55.129Z,23
2016-08-04T01:06:52.767Z,23.04
2016-08-04T01:07:54.789Z,22.98
2016-08-04T01:08:53.485Z,23
2016-08-04T01:09:54.196Z,23.02
2016-08-04T01:10:53.498Z,23.04
2016-08-04T01:11:53.502Z,22.98
2016-08-04T01:12:54.216Z,22.95
2016-08-04T01:13:52.803Z,22.94
2016-08-04T01:14:53.522Z,22.85
2016-08-04T01:15:53.519Z,23.05
2016-08-04T01:16:52.819Z,22.97
2016-08-04T01:17:52.834Z,22.98
2016-08-04T01:18:54.535Z,23.04
2016-08-04T01:20:54.263Z,22.85
2016-08-04T01:21:53.548Z,23.01
2016-08-04T01:22:53.556Z,23
2016-08-04T01:23:53.561Z,23.02
2016-08-04T01:24:53.562Z,23.01
2016-08-04T01:25:52.864Z,23.02
2016-08-04T01:26:53.575Z,22.98
2016-08-04T01:27:53.781Z,23.01
2016-08-04T01:28:53.581Z,23.02
2016-08-04T01:29:52.884Z,23.04
2016-08-04T01:30:53.596Z,23.02
2016-08-04T01:31:53.613Z,22.98
2016-08-04T01:32:52.896Z,22.98
2016-08-04T01:33:53.608Z,23
2016-08-04T01:35:52.920Z,23.01
2016-08-04T01:36:52.919Z,23
2016-08-04T01:37:54.335Z,23.05
2016-08-04T01:38:53.733Z,23.02
2016-08-04T01:39:53.637Z,22.98
2016-08-04T01:40:53.641Z,23.04
2016-08-04T01:41:53.652Z,22.86
2016-08-04T01:42:54.359Z,22.94
2016-08-04T01:43:53.656Z,22.86
2016-08-04T01:44:54.365Z,22.83
2016-08-04T01:45:53.670Z,22.91
2016-08-04T01:46:54.529Z,22.97
2016-08-04T01:47:54.685Z,22.85
2016-08-04T01:48:53.774Z,22.85
2016-08-04T01:49:52.981Z,22.82
2016-08-04T01:50:54.548Z,22.9
2016-08-04T01:51:54.593Z,22.83
2016-08-04T01:52:53.703Z,22.97
2016-08-04T01:53:54.413Z,22.85
2016-08-04T01:54:54.416Z,22.9
2016-08-04T01:55:53.006Z,22.83
2016-08-04T01:56:54.428Z,22.86
2016-08-04T01:57:53.725Z,22.83
2016-08-04T01:58:53.732Z,22.92
2016-08-04T01:59:54.440Z,22.82
2016-08-04T02:00:53.737Z,22.73
2016-08-04T02:01:53.743Z,22.83
2016-08-04T02:02:55.557Z,22.92
2016-08-04T02:03:53.767Z,22.91
2016-08-04T02:04:53.772Z,22.86
2016-08-04T02:05:53.773Z,22.95
2016-08-04T02:06:53.061Z,22.95
2016-08-04T02:07:54.480Z,22.98
2016-08-04T02:08:53.072Z,22.95
2016-08-04T02:09:53.787Z,22.98
2016-08-04T02:10:53.787Z,22.91
2016-08-04T02:11:53.682Z,22.9
2016-08-04T02:12:54.501Z,22.8
2016-08-04T02:13:55.608Z,22.83
2016-08-04T02:14:53.810Z,22.92
2016-08-04T02:15:54.515Z,22.95
2016-08-04T02:16:53.816Z,23
2016-08-04T02:17:54.529Z,23
2016-08-04T02:18:53.828Z,22.97
2016-08-04T02:19:53.882Z,22.95
2016-08-04T02:20:53.840Z,22.98
2016-08-04T02:21:54.546Z,23
2016-08-04T02:22:54.643Z,23.05
2016-08-04T02:23:53.850Z,23.05
2016-08-04T02:24:54.257Z,22.95
2016-08-04T02:25:54.569Z,22.97
2016-08-04T02:26:54.571Z,22.98
2016-08-04T02:27:53.917Z,22.94
2016-08-04T02:28:53.178Z,22.94
2016-08-04T02:29:53.880Z,22.85
2016-08-04T02:30:53.178Z,23.01
2016-08-04T02:31:53.181Z,22.97
2016-08-04T02:32:54.603Z,22.94
2016-08-04T02:33:55.163Z,23.02
2016-08-04T02:34:54.613Z,22.97
2016-08-04T02:35:54.762Z,22.92
2016-08-04T02:36:53.210Z,22.97
2016-08-04T02:37:53.917Z,22.94
2016-08-04T02:38:53.219Z,22.94
2016-08-04T02:39:53.931Z,22.9
2016-08-04T02:40:54.647Z,22.9
2016-08-04T02:41:53.941Z,22.86
2016-08-04T02:42:53.942Z,22.9
2016-08-04T02:43:53.946Z,22.91
2016-08-04T02:44:55.675Z,22.77
2016-08-04T02:45:54.967Z,22.8
2016-08-04T02:46:54.486Z,22.83
2016-08-04T02:47:54.674Z,22.92
2016-08-04T02:48:54.684Z,22.9
2016-08-04T02:49:54.686Z,22.88
2016-08-04T02:50:53.987Z,22.94
2016-08-04T02:51:53.282Z,22.88
2016-08-04T02:52:54.007Z,22.86
2016-08-04T02:53:54.200Z,22.82
2016-08-04T02:54:54.008Z,22.79
2016-08-04T02:55:53.305Z,22.8
2016-08-04T02:56:55.013Z,22.92
2016-08-04T02:57:55.628Z,22.83
2016-08-04T02:58:53.318Z,22.83
2016-08-04T02:59:54.736Z,22.94
2016-08-04T03:00:54.941Z,22.9
2016-08-04T03:01:53.381Z,22.85
2016-08-04T03:02:54.052Z,22.86
2016-08-04T03:03:53.342Z,22.82
2016-08-04T03:04:54.654Z,22.83
2016-08-04T03:05:54.054Z,22.95
2016-08-04T03:06:54.769Z,22.97
2016-08-04T03:07:54.069Z,22.98
2016-08-04T03:08:53.465Z,22.83
2016-08-04T03:09:54.786Z,22.76
2016-08-04T03:10:54.788Z,22.82
2016-08-04T03:11:54.791Z,22.79
2016-08-04T03:12:54.092Z,22.9
2016-08-04T03:13:54.096Z,22.88
2016-08-04T03:14:53.395Z,22.94
2016-08-04T03:15:55.762Z,22.8
2016-08-04T03:16:54.116Z,22.91
2016-08-04T03:17:54.166Z,22.9
2016-08-04T03:18:54.122Z,22.9
2016-08-04T03:19:54.131Z,22.85
2016-08-04T03:20:54.132Z,22.94
2016-08-04T03:21:54.133Z,22.83
2016-08-04T03:22:54.849Z,22.72
2016-08-04T03:23:54.855Z,22.68
2016-08-04T03:24:54.199Z,22.65
2016-08-04T03:25:54.860Z,22.79
2016-08-04T03:26:53.460Z,22.77
2016-08-04T03:27:54.504Z,22.86
2016-08-04T03:28:54.629Z,22.8
2016-08-04T03:29:54.172Z,22.88
2016-08-04T03:30:54.329Z,22.8
2016-08-04T03:31:54.184Z,22.88
2016-08-04T03:32:54.187Z,22.9
2016-08-04T03:33:53.482Z,22.79
2016-08-04T03:34:54.195Z,22.83
2016-08-04T03:35:53.490Z,22.77
2016-08-04T03:36:53.504Z,22.68
2016-08-04T03:37:54.212Z,22.77
2016-08-04T03:38:54.921Z,22.7
2016-08-04T03:39:55.223Z,22.83
2016-08-04T03:40:54.224Z,22.79
2016-08-04T03:41:53.522Z,22.79
2016-08-04T03:42:54.239Z,22.73
2016-08-04T03:43:54.243Z,22.55
2016-08-04T03:44:53.544Z,22.73
2016-08-04T03:45:53.541Z,22.76
2016-08-04T03:46:55.011Z,22.76
2016-08-04T03:47:54.265Z,22.79
2016-08-04T03:48:54.359Z,22.67
2016-08-04T03:49:53.560Z,22.77
2016-08-04T03:50:56.093Z,22.82
2016-08-04T03:51:54.983Z,22.8
2016-08-04T03:52:53.575Z,22.8
2016-08-04T03:53:54.285Z,22.9
2016-08-04T03:54:53.585Z,22.86
2016-08-04T03:55:55.003Z,22.9
2016-08-04T03:56:54.300Z,22.98
2016-08-04T03:57:54.308Z,22.8
2016-08-04T03:58:55.021Z,22.67
2016-08-04T03:59:54.962Z,22.75
2016-08-04T04:00:53.619Z,22.83
2016-08-04T04:01:54.376Z,22.75
2016-08-04T04:02:55.039Z,22.76
2016-08-04T04:03:53.628Z,22.8
2016-08-04T04:04:54.337Z,22.75
2016-08-04T04:05:53.638Z,22.7
2016-08-04T04:06:54.351Z,22.68
2016-08-04T04:07:55.065Z,22.76
2016-08-04T04:08:53.653Z,22.72
2016-08-04T04:09:55.071Z,22.68
2016-08-04T04:10:54.922Z,22.8
2016-08-04T04:11:55.083Z,22.82
2016-08-04T04:12:54.579Z,22.77
2016-08-04T04:13:54.383Z,22.83
2016-08-04T04:14:55.108Z,22.67
2016-08-04T04:15:54.393Z,22.51
2016-08-04T04:16:53.689Z,22.62
2016-08-04T04:17:54.400Z,22.68
2016-08-04T04:18:55.163Z,22.77
2016-08-04T04:19:55.119Z,22.82
2016-08-04T04:20:53.712Z,22.83
2016-08-04T04:21:55.522Z,22.77
2016-08-04T04:22:54.428Z,22.67
2016-08-04T04:23:55.934Z,22.77
2016-08-04T04:24:54.435Z,22.76
2016-08-04T04:25:53.731Z,22.79
2016-08-04T04:26:54.444Z,22.79
2016-08-04T04:27:55.153Z,22.73
2016-08-04T04:28:54.502Z,22.77
2016-08-04T04:29:54.453Z,22.77
2016-08-04T04:30:54.467Z,22.86
2016-08-04T04:31:53.762Z,22.79
2016-08-04T04:32:56.024Z,22.97
2016-08-04T04:33:55.182Z,22.95
2016-08-04T04:34:55.804Z,22.94
2016-08-04T04:35:54.486Z,22.88
2016-08-04T04:36:54.492Z,22.92
2016-08-04T04:37:53.792Z,22.9
2016-08-04T04:38:54.503Z,22.86
2016-08-04T04:39:54.507Z,22.85
2016-08-04T04:40:54.512Z,22.91
2016-08-04T04:41:54.518Z,22.86
2016-08-04T04:42:54.523Z,22.88
2016-08-04T04:43:54.576Z,22.86
2016-08-04T04:44:53.824Z,22.9
2016-08-04T04:45:56.460Z,22.85
2016-08-04T04:46:54.592Z,22.91
2016-08-04T04:47:55.355Z,22.86
2016-08-04T04:48:55.259Z,22.9
2016-08-04T04:49:55.264Z,22.85
2016-08-04T04:50:54.562Z,22.98
2016-08-04T04:51:54.619Z,22.85
2016-08-04T04:52:54.572Z,22.94
2016-08-04T04:53:54.576Z,22.86
2016-08-04T04:55:08.752Z,22.88
2016-08-04T04:55:53.879Z,22.85
2016-08-04T04:56:55.309Z,23.05
2016-08-04T04:57:54.599Z,22.95
2016-08-04T04:58:54.601Z,22.98
2016-08-04T04:59:55.312Z,22.92
2016-08-04T05:00:55.315Z,23.04
2016-08-04T05:01:54.615Z,23.17
2016-08-04T05:02:53.917Z,22.97
2016-08-04T05:03:55.333Z,23.2
2016-08-04T05:04:55.337Z,23.17
2016-08-04T05:06:54.649Z,23.35
2016-08-04T05:07:56.067Z,23.27
2016-08-04T05:08:54.655Z,23.25
2016-08-04T05:09:54.656Z,23.27
2016-08-04T05:10:55.369Z,23.39
2016-08-04T05:11:55.375Z,23.39
2016-08-04T05:12:55.382Z,23.54
2016-08-04T05:13:55.388Z,23.57
2016-08-04T05:14:55.395Z,23.61
2016-08-04T05:15:54.697Z,23.61
2016-08-04T05:16:54.697Z,23.63
2016-08-04T05:17:55.415Z,23.55
2016-08-04T05:18:55.687Z,23.57
2016-08-04T05:19:54.012Z,23.68
2016-08-04T05:21:54.729Z,23.55
2016-08-04T05:22:55.446Z,23.57
2016-08-04T05:23:55.446Z,23.63
2016-08-04T05:24:55.462Z,23.75
2016-08-04T05:25:54.753Z,23.68
2016-08-04T05:26:54.823Z,23.69
2016-08-04T05:27:54.556Z,23.55
2016-08-04T05:28:55.589Z,23.58
2016-08-04T05:29:56.458Z,23.66
2016-08-04T05:30:54.787Z,23.66
2016-08-04T05:31:55.495Z,23.65
2016-08-04T05:32:54.796Z,23.63
2016-08-04T05:33:55.509Z,23.58
2016-08-04T05:34:54.100Z,23.63
2016-08-04T05:35:55.530Z,23.61
2016-08-04T05:36:55.529Z,23.6
2016-08-04T05:37:55.546Z,23.5
2016-08-04T05:38:56.046Z,23.53
2016-08-04T05:39:55.549Z,23.65
2016-08-04T05:40:55.100Z,23.57
2016-08-04T05:41:54.852Z,23.6
2016-08-04T05:42:54.858Z,23.55
2016-08-04T05:43:54.865Z,23.73
2016-08-04T05:44:54.866Z,23.83
2016-08-04T05:45:55.593Z,23.85
2016-08-04T05:46:55.638Z,23.84
2016-08-04T05:47:54.238Z,23.84
2016-08-04T05:48:54.897Z,23.73
2016-08-04T05:49:56.365Z,23.68
2016-08-04T05:50:54.904Z,23.7
2016-08-04T05:51:56.022Z,23.6
2016-08-04T05:52:54.922Z,23.69
2016-08-04T05:53:54.929Z,23.7
2016-08-04T05:54:54.277Z,23.68
2016-08-04T05:55:54.941Z,23.7
2016-08-04T05:56:54.948Z,23.78
2016-08-04T05:57:54.952Z,23.88
2016-08-04T05:58:54.255Z,23.75
2016-08-04T05:59:56.170Z,23.7
2016-08-04T06:00:54.261Z,23.68
2016-08-04T06:01:55.684Z,23.65
2016-08-04T06:02:56.292Z,23.68
2016-08-04T06:03:55.696Z,23.61
2016-08-04T06:04:54.293Z,23.57
2016-08-04T06:05:55.053Z,23.54
2016-08-04T06:06:54.297Z,23.5
2016-08-04T06:07:55.724Z,23.4
2016-08-04T06:08:54.312Z,23.55
2016-08-04T06:09:55.737Z,23.61
2016-08-04T06:10:54.520Z,23.53
2016-08-04T06:11:56.685Z,23.58
2016-08-04T06:12:55.042Z,23.55
2016-08-04T06:13:56.535Z,23.66
2016-08-04T06:14:55.053Z,23.66
2016-08-04T06:15:55.056Z,23.51
2016-08-04T06:16:55.773Z,23.55
2016-08-04T06:17:55.076Z,23.51
2016-08-04T06:18:55.813Z,23.53
2016-08-04T06:19:54.426Z,23.55
2016-08-04T06:20:55.094Z,23.6
2016-08-04T06:21:55.806Z,23.6
2016-08-04T06:22:54.990Z,23.65
2016-08-04T06:23:55.819Z,23.73
2016-08-04T06:24:57.270Z,23.66
2016-08-04T06:25:55.819Z,23.61
2016-08-04T06:26:55.127Z,23.65
2016-08-04T06:27:55.202Z,23.69
2016-08-04T06:28:55.135Z,23.66
2016-08-04T06:29:55.139Z,23.65
2016-08-04T06:30:54.438Z,23.51
2016-08-04T06:31:55.858Z,23.53
2016-08-04T06:32:55.166Z,23.58
2016-08-04T06:33:56.013Z,23.54
2016-08-04T06:34:55.166Z,23.58
2016-08-04T06:35:55.981Z,23.57
2016-08-04T06:36:55.279Z,23.55
2016-08-04T06:37:55.993Z,23.42
2016-08-04T06:38:55.901Z,23.51
2016-08-04T06:39:55.295Z,23.51
2016-08-04T06:40:55.398Z,23.6
2016-08-04T06:41:56.013Z,23.69
2016-08-04T06:42:55.920Z,23.58
2016-08-04T06:43:55.315Z,23.58
2016-08-04T06:44:56.980Z,23.47
2016-08-04T06:45:54.523Z,23.43
2016-08-04T06:46:54.827Z,23.42
2016-08-04T06:47:55.336Z,23.46
2016-08-04T06:48:54.538Z,23.39
2016-08-04T06:49:55.251Z,23.55
2016-08-04T06:50:55.258Z,23.5
2016-08-04T06:51:55.265Z,23.51
2016-08-04T06:52:54.559Z,23.6
2016-08-04T06:53:55.281Z,23.57
2016-08-04T06:55:09.446Z,23.55
2016-08-04T06:55:55.793Z,23.51
2016-08-04T06:56:55.286Z,23.5
2016-08-04T06:57:55.090Z,23.51
2016-08-04T06:58:55.301Z,23.6
2016-08-04T06:59:55.304Z,23.6
2016-08-04T07:00:55.307Z,23.48
2016-08-04T07:01:55.313Z,23.54
2016-08-04T07:02:55.321Z,23.54
2016-08-04T07:03:56.037Z,23.57
2016-08-04T07:04:55.332Z,23.46
2016-08-04T07:05:55.338Z,23.38
2016-08-04T07:06:57.152Z,23.4
2016-08-04T07:07:57.256Z,23.42
2016-08-04T07:08:54.797Z,23.38
2016-08-04T07:09:55.367Z,23.39
2016-08-04T07:10:55.621Z,23.38
2016-08-04T07:11:55.371Z,23.5
2016-08-04T07:12:55.428Z,23.42
2016-08-04T07:13:54.688Z,23.5
2016-08-04T07:14:56.097Z,23.36
2016-08-04T07:15:55.415Z,23.43
2016-08-04T07:16:56.108Z,23.43
2016-08-04T07:17:56.406Z,23.5
2016-08-04T07:18:56.115Z,23.5
2016-08-04T07:19:55.057Z,23.48
2016-08-04T07:20:55.417Z,23.55
2016-08-04T07:21:56.380Z,23.51
2016-08-04T07:22:56.141Z,23.55
2016-08-04T07:23:55.450Z,23.58
2016-08-04T07:24:56.151Z,23.63
2016-08-04T07:25:56.155Z,23.75
2016-08-04T07:26:54.744Z,23.68
2016-08-04T07:27:55.458Z,23.76
2016-08-04T07:28:56.735Z,23.75
2016-08-04T07:29:55.470Z,23.84
2016-08-04T07:30:55.774Z,23.73
2016-08-04T07:31:55.073Z,23.55
2016-08-04T07:32:56.388Z,23.65
2016-08-04T07:33:57.021Z,23.55
2016-08-04T07:34:55.095Z,23.65
2016-08-04T07:35:56.265Z,23.68
2016-08-04T07:36:56.233Z,23.73
2016-08-04T07:37:56.223Z,23.61
2016-08-04T07:38:55.522Z,23.63
2016-08-04T07:39:55.531Z,23.6
2016-08-04T07:40:55.585Z,23.55
2016-08-04T07:41:55.184Z,23.6
2016-08-04T07:42:54.838Z,23.63
2016-08-04T07:43:56.559Z,23.68
2016-08-04T07:44:55.561Z,23.66
2016-08-04T07:45:56.280Z,23.61
2016-08-04T07:46:54.864Z,23.61
2016-08-04T07:47:56.285Z,23.7
2016-08-04T07:48:56.350Z,23.65
2016-08-04T07:49:54.883Z,23.68
2016-08-04T07:50:56.308Z,23.53
2016-08-04T07:51:55.602Z,23.69
2016-08-04T07:52:55.608Z,23.53
2016-08-04T07:53:56.320Z,23.69
2016-08-04T07:54:56.017Z,23.78
2016-08-04T07:55:55.623Z,23.69
2016-08-04T07:56:55.630Z,23.72
2016-08-04T07:57:56.396Z,23.75
2016-08-04T07:58:56.350Z,23.69
2016-08-04T07:59:55.745Z,23.54
2016-08-04T08:00:56.361Z,23.61
2016-08-04T08:01:55.664Z,23.58
2016-08-04T08:02:56.375Z,23.57
2016-08-04T08:03:55.672Z,23.76
2016-08-04T08:04:56.381Z,23.72
2016-08-04T08:05:57.829Z,23.63
2016-08-04T08:06:55.689Z,23.57
2016-08-04T08:07:54.987Z,23.58
2016-08-04T08:08:54.990Z,23.55
2016-08-04T08:09:55.709Z,23.53
2016-08-04T08:10:55.054Z,23.5
2016-08-04T08:11:55.011Z,23.46
2016-08-04T08:12:56.479Z,23.54
2016-08-04T08:13:55.775Z,23.57
2016-08-04T08:14:55.735Z,23.66
2016-08-04T08:15:55.739Z,23.63
2016-08-04T08:16:56.801Z,23.58
2016-08-04T08:17:55.751Z,23.68
2016-08-04T08:18:55.759Z,23.61
2016-08-04T08:19:56.118Z,23.66
2016-08-04T08:20:55.772Z,23.54
2016-08-04T08:21:55.781Z,23.57
2016-08-04T08:22:55.074Z,23.57
2016-08-04T08:23:55.786Z,23.61
2016-08-04T08:24:56.493Z,23.61
2016-08-04T08:25:55.850Z,23.65
2016-08-04T08:26:55.801Z,23.68
2016-08-04T08:27:57.417Z,23.7
2016-08-04T08:28:55.811Z,23.76
2016-08-04T08:29:55.821Z,23.65
2016-08-04T08:30:55.874Z,23.68
2016-08-04T08:31:55.830Z,23.6
2016-08-04T08:32:56.548Z,23.58
2016-08-04T08:33:55.843Z,23.58
2016-08-04T08:34:55.144Z,23.68
2016-08-04T08:35:56.564Z,23.61
2016-08-04T08:36:55.866Z,23.57
2016-08-04T08:37:56.578Z,23.6
2016-08-04T08:38:56.570Z,23.69
2016-08-04T08:39:56.585Z,23.58
2016-08-04T08:40:56.081Z,23.63
2016-08-04T08:41:56.643Z,23.57
2016-08-04T08:42:55.893Z,23.6
2016-08-04T08:43:55.898Z,23.57
2016-08-04T08:44:55.951Z,23.65
2016-08-04T08:45:56.625Z,23.55
2016-08-04T08:46:56.620Z,23.61
2016-08-04T08:47:56.631Z,23.6
2016-08-04T08:48:56.641Z,23.69
2016-08-04T08:49:55.240Z,23.54
2016-08-04T08:50:56.646Z,23.53
2016-08-04T08:51:55.991Z,23.51
2016-08-04T08:52:55.946Z,23.54
2016-08-04T08:53:56.661Z,23.57
2016-08-04T08:54:56.020Z,23.69
2016-08-04T08:55:55.969Z,23.6
2016-08-04T08:56:56.679Z,23.61
2016-08-04T08:57:56.736Z,23.61
2016-08-04T08:58:56.690Z,23.55
2016-08-04T08:59:55.285Z,23.66
2016-08-04T09:00:57.652Z,23.61
2016-08-04T09:01:55.999Z,23.65
2016-08-04T09:02:56.207Z,23.68
2016-08-04T09:03:56.770Z,23.66
2016-08-04T09:04:57.685Z,23.6
2016-08-04T09:05:56.024Z,23.61
2016-08-04T09:06:56.038Z,23.6
2016-08-04T09:07:55.326Z,23.58
2016-08-04T09:08:56.749Z,23.54
2016-08-04T09:09:56.048Z,23.5
2016-08-04T09:10:56.050Z,23.61
2016-08-04T09:11:56.904Z,23.55
2016-08-04T09:12:56.070Z,23.58
2016-08-04T09:13:56.827Z,23.54
2016-08-04T09:14:56.127Z,23.54
2016-08-04T09:15:57.403Z,23.6
2016-08-04T09:16:56.092Z,23.65
2016-08-04T09:17:56.090Z,23.63
2016-08-04T09:18:56.098Z,23.66
2016-08-04T09:19:56.152Z,23.61
2016-08-04T09:20:55.399Z,23.76
2016-08-04T09:21:55.402Z,23.66
2016-08-04T09:22:56.116Z,23.63
2016-08-04T09:23:55.415Z,23.65
2016-08-04T09:24:56.580Z,23.66
2016-08-04T09:25:56.893Z,23.63
2016-08-04T09:26:57.802Z,23.66
2016-08-04T09:27:56.855Z,23.55
2016-08-04T09:28:56.157Z,23.58
2016-08-04T09:29:55.451Z,23.58
2016-08-04T09:30:56.162Z,23.73
2016-08-04T09:31:55.467Z,23.83
2016-08-04T09:32:55.470Z,23.68
2016-08-04T09:33:56.940Z,23.7
2016-08-04T09:34:56.189Z,23.7
2016-08-04T09:35:57.252Z,23.73
2016-08-04T09:37:56.255Z,23.68
2016-08-04T09:38:56.214Z,23.76
2016-08-04T09:39:56.298Z,23.78
2016-08-04T09:40:56.245Z,23.69
2016-08-04T09:41:56.943Z,23.68
2016-08-04T09:42:56.282Z,23.61
2016-08-04T09:43:56.244Z,23.66
2016-08-04T09:44:56.957Z,23.68
2016-08-04T09:45:56.302Z,23.83
2016-08-04T09:46:57.467Z,23.68
2016-08-04T09:47:56.281Z,23.76
2016-08-04T09:48:58.158Z,23.63
2016-08-04T09:49:56.278Z,23.66
2016-08-04T09:50:56.986Z,23.69
2016-08-04T09:52:57.104Z,23.51
2016-08-04T09:53:57.008Z,23.6
2016-08-04T09:54:56.312Z,23.61
2016-08-04T09:55:56.315Z,23.57
2016-08-04T09:56:56.314Z,23.65
2016-08-04T09:57:57.294Z,23.73
2016-08-04T09:58:56.329Z,23.61
2016-08-04T09:59:57.920Z,23.6
2016-08-04T10:00:55.633Z,23.65
2016-08-04T10:01:57.197Z,23.57
2016-08-04T10:02:57.062Z,23.7
2016-08-04T10:03:56.364Z,23.65
2016-08-04T10:04:57.066Z,23.63
2016-08-04T10:05:57.080Z,23.57
2016-08-04T10:07:56.381Z,23.61
2016-08-04T10:08:56.837Z,23.68
2016-08-04T10:09:56.434Z,23.61
2016-08-04T10:10:56.395Z,23.6
2016-08-04T10:11:56.399Z,23.65
2016-08-04T10:12:56.806Z,23.68
2016-08-04T10:13:56.413Z,23.68
2016-08-04T10:14:56.415Z,23.6
2016-08-04T10:15:56.421Z,23.63
2016-08-04T10:16:56.431Z,23.6
2016-08-04T10:17:57.149Z,23.58
2016-08-04T10:18:55.737Z,23.61
2016-08-04T10:19:56.449Z,23.58
2016-08-04T10:20:56.450Z,23.61
2016-08-04T10:21:55.747Z,23.63
2016-08-04T10:22:55.755Z,23.61
2016-08-04T10:23:56.918Z,23.55
2016-08-04T10:24:55.767Z,23.72
2016-08-04T10:25:57.353Z,23.66
2016-08-04T10:26:56.546Z,23.69
2016-08-04T10:27:58.404Z,23.69
2016-08-04T10:28:56.493Z,23.69
2016-08-04T10:29:57.208Z,23.69
2016-08-04T10:30:57.214Z,23.65
2016-08-04T10:31:56.517Z,23.69
2016-08-04T10:32:58.329Z,23.69
2016-08-04T10:33:56.525Z,23.69
2016-08-04T10:34:57.509Z,23.75
2016-08-04T10:35:56.534Z,23.7
2016-08-04T10:36:57.253Z,23.7
2016-08-04T10:37:55.839Z,23.7
2016-08-04T10:38:56.647Z,23.72
2016-08-04T10:39:56.557Z,23.68
2016-08-04T10:40:57.282Z,23.83
2016-08-04T10:41:57.274Z,23.73
2016-08-04T10:42:55.867Z,23.61
2016-08-04T10:43:58.014Z,23.66
2016-08-04T10:44:55.885Z,23.66
2016-08-04T10:45:57.394Z,23.65
2016-08-04T10:46:56.605Z,23.61
2016-08-04T10:47:56.604Z,23.6
2016-08-04T10:48:57.318Z,23.57
2016-08-04T10:49:56.614Z,23.58
2016-08-04T10:50:57.322Z,23.65
2016-08-04T10:51:56.629Z,23.54
2016-08-04T10:52:57.347Z,23.53
2016-08-04T10:53:55.935Z,23.68
2016-08-04T10:54:58.323Z,23.68
2016-08-04T10:55:56.655Z,23.54
2016-08-04T10:56:57.572Z,23.61
2016-08-04T10:57:55.955Z,23.66
2016-08-04T10:58:56.720Z,23.57
2016-08-04T10:59:56.676Z,23.66
2016-08-04T11:00:57.388Z,23.65
2016-08-04T11:01:57.390Z,23.63
2016-08-04T11:02:57.621Z,23.66
2016-08-04T11:03:57.412Z,23.57
2016-08-04T11:04:57.406Z,23.63
2016-08-04T11:05:56.011Z,23.6
2016-08-04T11:06:56.711Z,23.54
2016-08-04T11:07:57.725Z,23.65
2016-08-04T11:08:57.482Z,23.6
2016-08-04T11:09:56.782Z,23.58
2016-08-04T11:10:56.736Z,23.65
2016-08-04T11:11:56.736Z,23.73
2016-08-04T11:12:56.748Z,23.57
2016-08-04T11:13:56.051Z,23.73
2016-08-04T11:14:57.473Z,23.6
2016-08-04T11:15:57.470Z,23.66
2016-08-04T11:16:56.063Z,23.63
2016-08-04T11:17:57.485Z,23.66
2016-08-04T11:18:57.238Z,23.65
2016-08-04T11:19:56.802Z,23.69
2016-08-04T11:20:58.599Z,23.6
2016-08-04T11:21:56.094Z,23.6
2016-08-04T11:22:56.806Z,23.68
2016-08-04T11:23:57.535Z,23.66
2016-08-04T11:24:57.521Z,23.66
2016-08-04T11:25:56.822Z,23.66
2016-08-04T11:26:56.836Z,23.65
2016-08-04T11:27:56.276Z,23.65
2016-08-04T11:28:56.895Z,23.69
2016-08-04T11:29:56.994Z,23.57
2016-08-04T11:30:58.332Z,23.58
2016-08-04T11:31:56.157Z,23.66
2016-08-04T11:32:57.622Z,23.61
2016-08-04T11:33:56.872Z,23.6
2016-08-04T11:34:56.367Z,23.7
2016-08-04T11:35:56.880Z,23.61
2016-08-04T11:36:57.124Z,23.65
2016-08-04T11:37:56.897Z,23.63
2016-08-04T11:38:56.192Z,23.63
2016-08-04T11:39:57.613Z,23.69
2016-08-04T11:40:57.410Z,23.68
2016-08-04T11:41:56.210Z,23.65
2016-08-04T11:42:57.896Z,23.66
2016-08-04T11:43:56.929Z,23.66
2016-08-04T11:44:57.301Z,23.69
2016-08-04T11:45:57.651Z,23.66
2016-08-04T11:46:57.752Z,23.6
2016-08-04T11:47:56.293Z,23.55
2016-08-04T11:48:57.676Z,23.65
2016-08-04T11:49:57.674Z,23.69
2016-08-04T11:50:57.028Z,23.55
2016-08-04T11:51:56.975Z,23.57
2016-08-04T11:52:57.088Z,23.63
2016-08-04T11:53:56.446Z,23.63
2016-08-04T11:54:56.995Z,23.66
2016-08-04T11:55:57.718Z,23.68
2016-08-04T11:56:57.073Z,23.69
2016-08-04T11:57:57.060Z,23.61
2016-08-04T11:58:57.071Z,23.68
2016-08-04T11:59:57.730Z,23.66
2016-08-04T12:00:57.736Z,23.6
2016-08-04T12:01:57.743Z,23.61
2016-08-04T12:02:56.336Z,23.66
2016-08-04T12:03:57.751Z,23.61
2016-08-04T12:04:57.755Z,23.55
2016-08-04T12:05:57.144Z,23.55
2016-08-04T12:06:57.319Z,23.58
2016-08-04T12:07:57.074Z,23.55
2016-08-04T12:08:57.782Z,23.53
2016-08-04T12:09:57.082Z,23.53
2016-08-04T12:10:57.095Z,23.57
2016-08-04T12:11:57.146Z,23.54
2016-08-04T12:12:57.103Z,23.54
2016-08-04T12:13:57.814Z,23.58
2016-08-04T12:14:57.865Z,23.58
2016-08-04T12:15:58.215Z,23.57
2016-08-04T12:16:57.882Z,23.63
2016-08-04T12:17:57.839Z,23.69
2016-08-04T12:18:56.428Z,23.68
2016-08-04T12:19:57.289Z,23.57
2016-08-04T12:20:57.195Z,23.57
2016-08-04T12:21:57.972Z,23.55
2016-08-04T12:22:57.155Z,23.58
2016-08-04T12:23:57.156Z,23.61
2016-08-04T12:24:57.879Z,23.65
2016-08-04T12:25:57.878Z,23.63
2016-08-04T12:26:58.125Z,23.6
2016-08-04T12:27:56.524Z,23.58
2016-08-04T12:28:57.289Z,23.65
2016-08-04T12:29:57.205Z,23.6
2016-08-04T12:30:57.198Z,23.6
2016-08-04T12:31:57.205Z,23.54
2016-08-04T12:32:57.210Z,23.63
2016-08-04T12:33:57.264Z,23.68
2016-08-04T12:34:57.927Z,23.55
2016-08-04T12:35:57.227Z,23.54
2016-08-04T12:36:57.232Z,23.54
2016-08-04T12:37:58.193Z,23.55
2016-08-04T12:38:57.296Z,23.51
2016-08-04T12:39:57.960Z,23.66
2016-08-04T12:41:11.425Z,23.57
2016-08-04T12:41:57.872Z,23.68
2016-08-04T12:42:57.269Z,23.54
2016-08-04T12:43:57.268Z,23.58
2016-08-04T12:44:57.326Z,23.55
2016-08-04T12:45:57.331Z,23.58
2016-08-04T12:46:57.288Z,23.58
2016-08-04T12:47:57.298Z,23.58
2016-08-04T12:48:56.589Z,23.61
2016-08-04T12:49:58.048Z,23.6
2016-08-04T12:50:57.110Z,23.53
2016-08-04T12:51:58.144Z,23.63
2016-08-04T12:52:58.473Z,23.55
2016-08-04T12:53:57.330Z,23.55
2016-08-04T12:54:56.624Z,23.54
2016-08-04T12:55:57.337Z,23.48
2016-08-04T12:56:58.052Z,23.51
2016-08-04T12:57:58.148Z,23.55
2016-08-04T12:58:57.454Z,23.6
2016-08-04T12:59:57.359Z,23.55
2016-08-04T13:00:58.421Z,23.54
2016-08-04T13:01:57.521Z,23.53
2016-08-04T13:02:57.377Z,23.63
2016-08-04T13:03:58.899Z,23.6
2016-08-04T13:04:58.097Z,23.68
2016-08-04T13:05:58.101Z,23.58